createdAt,value
2017-11-15T00:01:05.595Z,41.13
2017-11-15T00:03:33.437Z,44.20
2017-11-15T00:06:01.164Z,38.53
2017-11-15T00:08:29.280Z,42.87
2017-11-15T00:10:57.011Z,39.10
2017-11-15T00:13:24.704Z,38.63
2017-11-15T00:15:53.153Z,44.00
2017-11-15T00:18:20.935Z,38.90
2017-11-15T00:20:51.333Z,34.17
2017-11-15T00:23:19.169Z,51.30
2017-11-15T00:25:48.072Z,41.53
2017-11-15T00:28:15.699Z,34.53
2017-11-15T00:30:43.392Z,31.10
2017-11-15T00:33:11.262Z,38.40
2017-11-15T00:35:38.892Z,37.10
2017-11-15T00:38:07.604Z,45.27
2017-11-15T00:40:35.301Z,39.83
2017-11-15T00:43:03.275Z,46.50
2017-11-15T00:45:31.168Z,45.63
2017-11-15T00:47:59.019Z,46.67
2017-11-15T00:50:26.660Z,38.30
2017-11-15T00:52:54.580Z,40.80
2017-11-15T00:55:22.257Z,37.70
2017-11-15T00:57:50.021Z,33.83
2017-11-15T01:00:17.742Z,36.13
2017-11-15T01:02:45.494Z,38.00
2017-11-15T01:05:13.290Z,48.20
2017-11-15T01:07:41.793Z,37.70
2017-11-15T01:10:09.484Z,42.20
2017-11-15T01:12:37.120Z,45.63
2017-11-15T01:15:04.984Z,40.87
2017-11-15T01:17:33.428Z,45.30
2017-11-15T01:20:01.097Z,37.53
2017-11-15T01:22:28.780Z,42.53
2017-11-15T01:24:56.405Z,44.73
2017-11-15T01:27:24.040Z,42.90
2017-11-15T01:29:51.872Z,42.70
2017-11-15T01:32:20.639Z,45.67
2017-11-15T01:34:48.704Z,38.30
2017-11-15T01:37:16.628Z,40.10
2017-11-15T01:39:44.417Z,38.87
2017-11-15T01:42:12.221Z,44.30
2017-11-15T01:44:40.920Z,46.97
2017-11-15T01:47:08.773Z,38.23
2017-11-15T01:49:36.398Z,45.03
2017-11-15T01:52:04.082Z,50.07
2017-11-15T01:54:31.768Z,39.00
2017-11-15T01:56:59.813Z,47.17
2017-11-15T01:59:28.564Z,40.80
2017-11-15T02:01:56.197Z,37.33
2017-11-15T02:04:24.666Z,39.20
2017-11-15T02:06:53.139Z,38.80
2017-11-15T02:09:21.688Z,82.50
2017-11-15T02:11:49.317Z,44.33
2017-11-15T02:14:16.994Z,49.83
2017-11-15T02:16:44.692Z,44.17
2017-11-15T02:19:12.330Z,42.37
2017-11-15T02:21:40.808Z,40.50
2017-11-15T02:24:08.624Z,44.30
2017-11-15T02:26:36.335Z,46.17
2017-11-15T02:29:04.096Z,41.83
2017-11-15T02:31:31.736Z,42.17
2017-11-15T02:33:59.490Z,43.40
2017-11-15T02:36:27.329Z,40.30
2017-11-15T02:38:55.067Z,42.50
2017-11-15T02:41:22.757Z,40.27
2017-11-15T02:43:50.530Z,40.97
2017-11-15T02:46:18.308Z,39.97
2017-11-15T02:48:45.968Z,40.30
2017-11-15T02:51:14.502Z,40.30
2017-11-15T02:53:42.136Z,35.30
2017-11-15T02:56:10.688Z,36.60
2017-11-15T02:58:38.403Z,50.33
2017-11-15T03:01:06.105Z,42.33
2017-11-15T03:03:33.837Z,44.10
2017-11-15T03:06:02.405Z,45.70
2017-11-15T03:08:30.212Z,37.70
2017-11-15T03:10:57.955Z,41.57
2017-11-15T03:13:25.876Z,43.47
2017-11-15T03:15:53.567Z,35.90
2017-11-15T03:18:21.293Z,40.77
2017-11-15T03:20:49.123Z,37.37
2017-11-15T03:23:16.827Z,38.00
2017-11-15T03:25:44.461Z,49.10
2017-11-15T03:28:12.348Z,39.13
2017-11-15T03:30:40.114Z,39.43
2017-11-15T03:33:07.903Z,43.40
2017-11-15T03:35:35.813Z,37.83
2017-11-15T03:38:06.549Z,34.57
2017-11-15T03:40:34.200Z,40.57
2017-11-15T03:43:02.191Z,38.97
2017-11-15T03:45:29.895Z,44.83
2017-11-15T03:47:57.544Z,55.83
2017-11-15T03:50:25.295Z,58.77
2017-11-15T03:52:53.154Z,45.93
2017-11-15T03:55:20.899Z,47.10
2017-11-15T03:57:49.519Z,52.50
2017-11-15T04:00:17.298Z,49.83
2017-11-15T04:02:44.936Z,51.37
2017-11-15T04:05:12.698Z,49.40
2017-11-15T04:07:40.329Z,48.87
2017-11-15T04:10:07.973Z,52.03
2017-11-15T04:12:35.717Z,54.43
2017-11-15T04:15:03.401Z,54.67
2017-11-15T04:17:31.024Z,42.23
2017-11-15T04:19:58.809Z,55.50
2017-11-15T04:22:26.436Z,60.70
2017-11-15T04:24:54.064Z,44.53
2017-11-15T04:27:21.785Z,43.87
2017-11-15T04:29:49.487Z,53.83
2017-11-15T04:32:17.961Z,55.23
2017-11-15T04:34:45.724Z,64.70
2017-11-15T04:37:13.408Z,57.67
2017-11-15T04:39:41.159Z,57.03
2017-11-15T04:42:08.839Z,68.53
2017-11-15T04:44:36.515Z,59.67
2017-11-15T04:47:04.269Z,68.13
2017-11-15T04:49:32.166Z,67.53
2017-11-15T04:52:00.639Z,50.80
2017-11-15T04:54:28.408Z,70.63
2017-11-15T04:56:56.396Z,53.77
2017-11-15T04:59:24.164Z,52.90
2017-11-15T05:01:54.624Z,60.37
2017-11-15T05:04:22.307Z,52.23
2017-11-15T05:06:50.024Z,65.47
2017-11-15T05:09:17.646Z,65.73
2017-11-15T05:11:45.388Z,51.43
2017-11-15T05:14:13.105Z,56.27
2017-11-15T05:16:41.043Z,51.07
2017-11-15T05:19:08.728Z,62.40
2017-11-15T05:21:36.520Z,61.50
2017-11-15T05:24:04.137Z,52.53
2017-11-15T05:26:31.876Z,55.00
2017-11-15T05:28:59.568Z,52.83
2017-11-15T05:31:27.196Z,42.87
2017-11-15T05:33:54.948Z,31.93
2017-11-15T05:36:22.593Z,32.90
2017-11-15T05:38:50.228Z,39.50
2017-11-15T05:41:17.972Z,34.40
2017-11-15T05:43:45.599Z,30.13
2017-11-15T05:46:13.228Z,37.70
2017-11-15T05:48:40.969Z,32.53
2017-11-15T05:51:08.604Z,29.30
2017-11-15T05:53:36.300Z,30.03
2017-11-15T05:56:04.000Z,28.57
2017-11-15T05:58:31.689Z,26.50
2017-11-15T06:00:59.324Z,24.97
2017-11-15T06:03:27.067Z,29.50
2017-11-15T06:05:54.696Z,30.30
2017-11-15T06:08:22.386Z,30.93
2017-11-15T06:10:50.157Z,33.27
2017-11-15T06:13:17.827Z,31.70
2017-11-15T06:15:45.535Z,34.10
2017-11-15T06:18:13.326Z,33.43
2017-11-15T06:20:40.959Z,39.73
2017-11-15T06:23:08.632Z,36.77
2017-11-15T06:25:36.507Z,35.23
2017-11-15T06:28:04.140Z,36.93
2017-11-15T06:30:31.870Z,39.97
2017-11-15T06:32:59.504Z,46.33
2017-11-15T06:35:27.276Z,43.97
2017-11-15T06:37:54.935Z,41.53
2017-11-15T06:40:22.657Z,41.17
2017-11-15T06:42:50.271Z,36.00
2017-11-15T06:45:17.913Z,27.90
2017-11-15T06:47:45.593Z,32.30
2017-11-15T06:50:13.236Z,32.70
2017-11-15T06:52:40.937Z,32.60
2017-11-15T06:55:08.685Z,35.77
2017-11-15T06:57:36.375Z,40.17
2017-11-15T07:00:04.117Z,40.40
2017-11-15T07:02:31.787Z,40.87
2017-11-15T07:04:59.416Z,34.87
2017-11-15T07:07:27.041Z,36.07
2017-11-15T07:09:54.706Z,38.03
2017-11-15T07:12:22.401Z,36.33
2017-11-15T07:14:50.095Z,41.93
2017-11-15T07:17:17.788Z,41.83
2017-11-15T07:19:45.429Z,37.37
2017-11-15T07:22:13.073Z,42.90
2017-11-15T07:24:40.833Z,36.30
2017-11-15T07:27:08.460Z,39.30
2017-11-15T07:29:36.085Z,48.67
2017-11-15T07:32:03.764Z,38.77
2017-11-15T07:34:31.448Z,36.73
2017-11-15T07:36:59.083Z,38.80
2017-11-15T07:39:26.796Z,37.47
2017-11-15T07:41:54.494Z,38.23
2017-11-15T07:44:22.119Z,35.43
2017-11-15T07:46:49.793Z,41.67
2017-11-15T07:49:17.436Z,44.63
2017-11-15T07:51:45.178Z,56.00
2017-11-15T07:54:12.937Z,34.47
2017-11-15T07:56:40.612Z,39.07
2017-11-15T07:59:08.232Z,40.10
2017-11-15T08:01:35.901Z,36.70
2017-11-15T08:04:03.542Z,31.93
2017-11-15T08:06:31.169Z,32.37
2017-11-15T08:08:58.960Z,35.20
2017-11-15T08:11:26.692Z,29.60
2017-11-15T08:13:54.324Z,30.67
2017-11-15T08:16:22.008Z,30.73
2017-11-15T08:18:49.641Z,31.83
2017-11-15T08:21:17.272Z,27.40
2017-11-15T08:23:44.997Z,30.30
2017-11-15T08:26:12.625Z,45.93
2017-11-15T08:28:40.313Z,59.13
2017-11-15T08:31:08.034Z,70.40
2017-11-15T08:33:35.676Z,54.70
2017-11-15T08:36:03.311Z,46.97
2017-11-15T08:38:30.999Z,41.57
2017-11-15T08:40:58.637Z,37.83
2017-11-15T08:43:26.256Z,27.30
2017-11-15T08:45:53.924Z,28.83
2017-11-15T08:48:21.555Z,33.83
2017-11-15T08:50:49.256Z,37.03
2017-11-15T08:53:16.979Z,35.30
2017-11-15T08:55:44.673Z,36.63
2017-11-15T08:58:12.297Z,40.37
2017-11-15T09:00:40.033Z,32.80
2017-11-15T09:03:07.720Z,32.70
2017-11-15T09:05:35.348Z,31.97
2017-11-15T09:08:03.909Z,30.53
2017-11-15T09:10:31.538Z,29.87
2017-11-15T09:12:59.161Z,32.23
2017-11-15T09:15:26.896Z,31.83
2017-11-15T09:17:54.512Z,34.70
2017-11-15T09:20:22.137Z,29.27
2017-11-15T09:22:49.876Z,27.53
2017-11-15T09:25:17.497Z,39.30
2017-11-15T09:27:45.165Z,34.20
2017-11-15T09:30:12.845Z,46.63
2017-11-15T09:32:40.533Z,41.60
2017-11-15T09:35:08.166Z,44.80
2017-11-15T09:37:35.842Z,40.97
2017-11-15T09:40:03.475Z,58.27
2017-11-15T09:42:31.162Z,58.97
2017-11-15T09:44:58.957Z,67.57
2017-11-15T09:47:26.584Z,68.80
2017-11-15T09:49:54.260Z,42.90
2017-11-15T09:52:21.965Z,35.97
2017-11-15T09:54:49.588Z,35.17
2017-11-15T09:57:17.208Z,35.30
2017-11-15T09:59:44.982Z,41.40
2017-11-15T10:02:12.665Z,48.10
2017-11-15T10:04:40.345Z,39.13
2017-11-15T10:07:08.009Z,43.50
2017-11-15T10:09:35.644Z,40.93
2017-11-15T10:12:03.330Z,51.87
2017-11-15T10:14:31.057Z,56.10
2017-11-15T10:17:07.338Z,52.40
2017-11-15T10:19:35.086Z,61.87
2017-11-15T10:22:02.714Z,76.97
2017-11-15T10:24:30.338Z,62.87
2017-11-15T10:26:58.078Z,64.47
2017-11-15T10:29:25.768Z,71.23
2017-11-15T10:31:53.460Z,55.77
2017-11-15T10:34:21.132Z,56.13
2017-11-15T10:36:48.764Z,70.60
2017-11-15T10:39:16.440Z,58.30
2017-11-15T10:41:44.178Z,67.97
2017-11-15T10:44:11.805Z,46.70
2017-11-15T10:46:39.451Z,43.27
2017-11-15T10:49:07.121Z,79.77
2017-11-15T10:51:34.742Z,64.27
2017-11-15T10:54:02.473Z,80.60
2017-11-15T10:56:30.156Z,65.27
2017-11-15T10:58:57.840Z,55.30
2017-11-15T11:01:25.533Z,66.13
2017-11-15T11:03:53.226Z,55.73
2017-11-15T11:06:20.884Z,69.10
2017-11-15T11:08:48.523Z,67.73
2017-11-15T11:11:16.202Z,74.73
2017-11-15T11:13:43.889Z,56.67
2017-11-15T11:16:11.513Z,66.80
2017-11-15T11:18:39.198Z,78.93
2017-11-15T11:21:06.828Z,76.10
2017-11-15T11:23:34.519Z,63.77
2017-11-15T11:26:02.196Z,62.00
2017-11-15T11:28:29.817Z,81.80
2017-11-15T11:30:57.516Z,76.03
2017-11-15T11:33:25.264Z,61.20
2017-11-15T11:35:52.889Z,63.83
2017-11-15T11:38:20.501Z,70.13
2017-11-15T11:40:48.172Z,79.47
2017-11-15T11:43:15.846Z,55.77
2017-11-15T11:45:43.474Z,73.77
2017-11-15T11:48:11.149Z,69.20
2017-11-15T11:50:38.773Z,84.40
2017-11-15T11:53:06.454Z,80.50
2017-11-15T11:55:34.140Z,103.03
2017-11-15T11:58:01.826Z,92.70
2017-11-15T12:00:29.469Z,107.40
2017-11-15T12:02:57.236Z,124.60
2017-11-15T12:05:24.929Z,97.57
2017-11-15T12:07:52.555Z,72.80
2017-11-15T12:10:20.244Z,83.90
2017-11-15T12:12:47.873Z,99.23
2017-11-15T12:15:15.505Z,86.77
2017-11-15T12:17:43.181Z,69.43
2017-11-15T12:20:10.807Z,72.97
2017-11-15T12:22:38.428Z,78.40
2017-11-15T12:25:06.894Z,63.77
2017-11-15T12:27:34.569Z,70.57
2017-11-15T12:30:02.249Z,73.70
2017-11-15T12:32:30.050Z,88.07
2017-11-15T12:34:57.742Z,69.13
2017-11-15T12:37:25.421Z,78.20
2017-11-15T12:39:53.081Z,73.80
2017-11-15T12:42:20.716Z,66.43
2017-11-15T12:44:48.404Z,70.63
2017-11-15T12:47:16.095Z,98.03
2017-11-15T12:49:43.786Z,106.93
2017-11-15T12:52:11.476Z,120.80
2017-11-15T12:54:39.168Z,87.23
2017-11-15T12:57:06.822Z,68.80
2017-11-15T12:59:34.449Z,80.90
2017-11-15T13:02:02.130Z,76.30
2017-11-15T13:04:29.829Z,76.53
2017-11-15T13:06:57.445Z,80.50
2017-11-15T13:09:25.132Z,100.03
2017-11-15T13:11:52.817Z,80.03
2017-11-15T13:14:20.508Z,113.00
2017-11-15T13:16:48.220Z,110.40
2017-11-15T13:19:15.852Z,95.67
2017-11-15T13:21:43.509Z,111.77
2017-11-15T13:24:11.184Z,116.77
2017-11-15T13:26:38.866Z,156.90
2017-11-15T13:29:06.517Z,142.90
2017-11-15T13:31:34.190Z,164.93
2017-11-15T13:34:01.814Z,146.00
2017-11-15T13:36:29.521Z,130.87
2017-11-15T13:38:57.206Z,116.33
2017-11-15T13:41:24.828Z,122.23
2017-11-15T13:43:52.458Z,118.60
2017-11-15T13:46:20.171Z,105.17
2017-11-15T13:48:47.801Z,105.20
2017-11-15T13:51:15.429Z,135.77
2017-11-15T13:53:43.121Z,124.07
2017-11-15T13:56:10.816Z,115.93
2017-11-15T13:58:38.498Z,122.30
2017-11-15T14:01:06.183Z,115.40
2017-11-15T14:03:33.879Z,101.87
2017-11-15T14:06:01.517Z,133.30
2017-11-15T14:08:29.286Z,133.87
2017-11-15T14:10:56.928Z,133.80
2017-11-15T14:13:24.545Z,144.57
2017-11-15T14:15:52.279Z,121.53
2017-11-15T14:18:19.925Z,122.60
2017-11-15T14:20:47.624Z,131.57
2017-11-15T14:23:15.344Z,113.63
2017-11-15T14:25:42.969Z,110.33
2017-11-15T14:28:10.598Z,111.90
2017-11-15T14:30:38.290Z,113.60
2017-11-15T14:33:05.975Z,109.53
2017-11-15T14:35:33.605Z,100.67
2017-11-15T14:38:01.308Z,110.60
2017-11-15T14:40:29.001Z,121.40
2017-11-15T14:42:56.629Z,107.33
2017-11-15T14:45:24.369Z,109.37
2017-11-15T14:47:52.062Z,122.87
2017-11-15T14:50:19.701Z,107.00
2017-11-15T14:52:47.392Z,86.50
2017-11-15T14:55:15.018Z,84.77
2017-11-15T14:57:42.641Z,90.03
2017-11-15T15:00:10.337Z,83.03
2017-11-15T15:02:38.075Z,95.80
2017-11-15T15:05:05.708Z,101.80
2017-11-15T15:07:33.428Z,85.13
2017-11-15T15:10:01.121Z,100.60
2017-11-15T15:12:28.787Z,119.17
2017-11-15T15:14:56.524Z,105.67
2017-11-15T15:17:24.160Z,102.07
2017-11-15T15:19:51.781Z,99.97
2017-11-15T15:22:19.450Z,107.23
2017-11-15T15:24:47.197Z,103.77
2017-11-15T15:27:14.873Z,107.47
2017-11-15T15:29:42.555Z,119.70
2017-11-15T15:32:10.178Z,93.90
2017-11-15T15:34:37.809Z,89.93
2017-11-15T15:37:05.537Z,101.10
2017-11-15T15:39:33.226Z,92.43
2017-11-15T15:42:00.874Z,94.23
2017-11-15T15:44:28.630Z,109.53
2017-11-15T15:46:56.270Z,111.90
2017-11-15T15:49:23.984Z,109.97
2017-11-15T15:51:51.665Z,120.80
2017-11-15T15:54:19.352Z,107.33
2017-11-15T15:56:47.050Z,109.37
2017-11-15T15:59:14.750Z,110.00
2017-11-15T16:01:42.447Z,106.70
2017-11-15T16:04:10.076Z,118.67
2017-11-15T16:06:37.881Z,118.63
2017-11-15T16:09:05.564Z,134.40
2017-11-15T16:11:33.216Z,109.17
2017-11-15T16:14:00.927Z,100.60
2017-11-15T16:16:28.565Z,121.23
2017-11-15T16:18:56.192Z,115.13
2017-11-15T16:21:23.877Z,114.63
2017-11-15T16:23:52.443Z,104.57
2017-11-15T16:26:20.133Z,101.80
2017-11-15T16:28:47.827Z,103.67
2017-11-15T16:31:15.516Z,120.87
2017-11-15T16:33:43.153Z,120.10
2017-11-15T16:36:10.922Z,101.00
2017-11-15T16:38:38.631Z,116.43
2017-11-15T16:41:06.316Z,98.77
2017-11-15T16:43:34.002Z,102.47
2017-11-15T16:46:01.696Z,93.20
2017-11-15T16:48:29.316Z,81.67
2017-11-15T16:50:57.049Z,87.00
2017-11-15T16:53:24.669Z,85.97
2017-11-15T16:55:52.297Z,92.93
2017-11-15T16:58:19.965Z,81.20
2017-11-15T17:00:47.593Z,101.47
2017-11-15T17:03:15.220Z,97.83
2017-11-15T17:05:42.947Z,93.27
2017-11-15T17:08:10.569Z,77.87
2017-11-15T17:10:38.200Z,96.03
2017-11-15T17:13:05.875Z,91.50
2017-11-15T17:15:33.553Z,85.37
2017-11-15T17:18:01.220Z,110.13
2017-11-15T17:20:28.883Z,80.57
2017-11-15T17:22:56.565Z,87.87
2017-11-15T17:25:24.236Z,80.80
2017-11-15T17:27:51.913Z,87.87
2017-11-15T17:30:19.609Z,75.80
2017-11-15T17:32:47.358Z,76.30
2017-11-15T17:35:15.099Z,78.47
2017-11-15T17:37:42.773Z,89.80
2017-11-15T17:40:10.461Z,85.60
2017-11-15T17:42:38.142Z,73.53
2017-11-15T17:45:05.760Z,85.73
2017-11-15T17:47:33.471Z,81.23
2017-11-15T17:50:01.157Z,75.10
2017-11-15T17:52:28.789Z,81.50
2017-11-15T17:54:56.415Z,94.10
2017-11-15T17:57:24.195Z,109.03
2017-11-15T17:59:51.853Z,103.13
2017-11-15T18:02:19.564Z,161.07
2017-11-15T18:04:47.287Z,171.57
2017-11-15T18:07:14.975Z,121.17
2017-11-15T18:09:42.630Z,126.50
2017-11-15T18:12:10.402Z,118.10
2017-11-15T18:14:38.245Z,122.57
2017-11-15T18:17:05.880Z,132.03
2017-11-15T18:19:33.617Z,97.90
2017-11-15T18:22:01.350Z,100.23
2017-11-15T18:24:28.976Z,111.30
2017-11-15T18:26:56.740Z,113.30
2017-11-15T18:29:24.436Z,118.80
2017-11-15T18:31:52.121Z,99.43
2017-11-15T18:34:19.902Z,84.47
2017-11-15T18:36:47.535Z,105.33
2017-11-15T18:39:15.170Z,82.63
2017-11-15T18:41:42.916Z,86.63
2017-11-15T18:44:10.597Z,77.67
2017-11-15T18:46:38.225Z,99.53
2017-11-15T18:49:05.893Z,98.83
2017-11-15T18:51:33.505Z,114.33
2017-11-15T18:54:01.267Z,101.93
2017-11-15T18:56:29.014Z,103.70
2017-11-15T18:58:56.712Z,92.47
2017-11-15T19:01:24.345Z,83.20
2017-11-15T19:03:52.038Z,91.17
2017-11-15T19:06:19.681Z,88.53
2017-11-15T19:08:47.330Z,99.13
2017-11-15T19:11:15.068Z,83.60
2017-11-15T19:13:42.697Z,86.43
2017-11-15T19:16:10.388Z,80.03
2017-11-15T19:18:38.086Z,100.50
2017-11-15T19:21:05.715Z,115.17
2017-11-15T19:23:33.392Z,96.63
2017-11-15T19:26:01.072Z,85.60
2017-11-15T19:28:28.688Z,91.73
2017-11-15T19:30:56.309Z,99.47
2017-11-15T19:33:23.976Z,84.97
2017-11-15T19:35:51.658Z,101.37
2017-11-15T19:38:19.281Z,70.70
2017-11-15T19:40:46.957Z,83.57
2017-11-15T19:43:14.649Z,87.10
2017-11-15T19:45:42.286Z,89.10
2017-11-15T19:48:09.965Z,72.80
2017-11-15T19:50:37.591Z,78.70
2017-11-15T19:53:05.212Z,86.17
2017-11-15T19:55:32.940Z,85.27
2017-11-15T19:58:00.556Z,83.43
2017-11-15T20:00:28.179Z,124.63
2017-11-15T20:02:55.856Z,102.47
2017-11-15T20:05:23.571Z,101.50
2017-11-15T20:07:51.249Z,96.93
2017-11-15T20:10:18.947Z,99.33
2017-11-15T20:12:46.647Z,88.77
2017-11-15T20:15:14.329Z,93.10
2017-11-15T20:17:42.004Z,73.40
2017-11-15T20:20:09.645Z,89.77
2017-11-15T20:22:37.429Z,89.43
2017-11-15T20:25:05.133Z,97.70
2017-11-15T20:27:32.768Z,97.47
2017-11-15T20:30:00.457Z,83.40
2017-11-15T20:32:28.214Z,95.40
2017-11-15T20:34:55.849Z,94.37
2017-11-15T20:37:23.504Z,78.10
2017-11-15T20:39:51.176Z,88.93
2017-11-15T20:42:18.810Z,96.90
2017-11-15T20:44:46.477Z,86.33
2017-11-15T20:47:14.255Z,77.60
2017-11-15T20:49:41.895Z,78.77
2017-11-15T20:52:09.530Z,76.47
2017-11-15T20:54:37.229Z,82.17
2017-11-15T20:57:04.869Z,62.23
2017-11-15T20:59:32.588Z,84.47
2017-11-15T21:02:00.452Z,85.10
2017-11-15T21:04:28.163Z,97.27
2017-11-15T21:06:55.807Z,68.87
2017-11-15T21:09:23.488Z,69.13
2017-11-15T21:11:51.173Z,76.53
2017-11-15T21:14:18.840Z,75.17
2017-11-15T21:16:46.505Z,84.50
2017-11-15T21:19:14.120Z,74.17
2017-11-15T21:21:41.732Z,60.47
2017-11-15T21:24:09.432Z,69.60
2017-11-15T21:26:37.045Z,79.53
2017-11-15T21:29:04.729Z,74.20
2017-11-15T21:31:32.417Z,68.07
2017-11-15T21:34:00.098Z,73.47
2017-11-15T21:36:27.797Z,72.67
2017-11-15T21:38:55.533Z,75.57
2017-11-15T21:41:23.154Z,59.53
2017-11-15T21:43:50.777Z,74.33
2017-11-15T21:46:18.475Z,72.57
2017-11-15T21:48:46.162Z,65.37
2017-11-15T21:51:13.845Z,55.63
2017-11-15T21:53:41.584Z,63.60
2017-11-15T21:56:09.231Z,69.20
2017-11-15T21:58:36.856Z,58.60
2017-11-15T22:01:04.563Z,58.83
2017-11-15T22:03:32.197Z,61.40
2017-11-15T22:05:59.823Z,47.87
2017-11-15T22:08:27.557Z,58.07
2017-11-15T22:10:55.237Z,58.10
2017-11-15T22:13:22.873Z,51.63
2017-11-15T22:15:50.606Z,58.43
2017-11-15T22:18:18.234Z,56.13
2017-11-15T22:20:45.866Z,62.87
2017-11-15T22:23:13.600Z,57.87
2017-11-15T22:25:41.274Z,51.77
2017-11-15T22:28:08.891Z,61.13
2017-11-15T22:30:36.658Z,62.10
2017-11-15T22:33:04.287Z,49.40
2017-11-15T22:35:31.908Z,54.20
2017-11-15T22:37:59.591Z,49.33
2017-11-15T22:40:27.229Z,48.63
2017-11-15T22:42:54.906Z,50.33
2017-11-15T22:45:22.575Z,51.37
2017-11-15T22:47:50.197Z,40.37
2017-11-15T22:50:17.818Z,49.00
2017-11-15T22:52:45.557Z,46.57
2017-11-15T22:55:13.176Z,40.00
2017-11-15T22:57:40.795Z,32.57
2017-11-15T23:00:08.617Z,36.57
2017-11-15T23:02:36.293Z,37.67
2017-11-15T23:05:03.976Z,50.63
2017-11-15T23:07:31.657Z,42.00
2017-11-15T23:09:59.292Z,43.30
2017-11-15T23:12:26.976Z,40.57
2017-11-15T23:14:54.702Z,35.03
2017-11-15T23:17:22.323Z,40.07
2017-11-15T23:19:49.948Z,37.93
2017-11-15T23:22:17.673Z,39.20
2017-11-15T23:24:45.357Z,33.60
2017-11-15T23:27:12.984Z,35.53
2017-11-15T23:29:40.708Z,36.50
2017-11-15T23:32:08.330Z,35.70
2017-11-15T23:34:35.950Z,39.63
2017-11-15T23:37:03.653Z,43.50
2017-11-15T23:39:31.280Z,46.37
2017-11-15T23:41:58.904Z,40.63
2017-11-15T23:44:26.613Z,40.67
2017-11-15T23:46:54.295Z,41.37
2017-11-15T23:49:21.977Z,34.70
2017-11-15T23:51:49.676Z,40.83
2017-11-15T23:54:17.305Z,36.20
2017-11-15T23:56:44.944Z,48.37
2017-11-15T23:59:12.678Z,37.07
